Time;durP1;ratioP1;P1;durP2;ratioP2;P2;SDS_P1;SDS_P2;PMS_P1;PMS_P2;Temp;Humidity;BMP_temperature;BMP_pressure;BME280_temperature;BME280_humidity;BME280_pressure;Samples;Min_cycle;Max_cycle;Signal;HPM_P1;HPM_P2
2023/10/28 00:01:06;;;;;;;12.15;3.85;;;;;;;;;;6240689;22;20086;-44
2023/10/28 00:03:34;;;;;;;11.45;4.13;;;;;;;;;;6246655;22;20454;-42
2023/10/28 00:06:02;;;;;;;10.60;3.97;;;;;;;;;;6256256;22;20016;-43
2023/10/28 00:08:30;;;;;;;14.45;4.05;;;;;;;;;;6268421;22;20072;-43
2023/10/28 00:10:57;;;;;;;17.37;5.90;;;;;;;;;;6234650;22;20015;-42
2023/10/28 00:13:25;;;;;;;13.73;4.47;;;;;;;;;;6276993;22;20019;-43
2023/10/28 00:15:53;;;;;;;14.15;4.30;;;;;;;;;;6271098;22;20019;-42
2023/10/28 00:18:22;;;;;;;12.70;3.42;;;;;;;;;;6242156;22;20058;-43
2023/10/28 00:20:50;;;;;;;14.10;3.90;;;;;;;;;;6243998;22;20408;-42
2023/10/28 00:23:17;;;;;;;12.60;4.60;;;;;;;;;;6246143;22;20012;-42
2023/10/28 00:25:45;;;;;;;13.30;3.58;;;;;;;;;;6267383;22;20384;-42
2023/10/28 00:28:14;;;;;;;13.73;2.97;;;;;;;;;;6278696;22;20490;-42
2023/10/28 00:30:42;;;;;;;13.38;3.78;;;;;;;;;;6266648;22;20300;-42
2023/10/28 00:33:15;;;;;;;12.40;3.50;;;;;;;;;;6275730;22;20041;-44
2023/10/28 00:35:45;;;;;;;12.20;3.20;;;;;;;;;;6273053;22;20084;-43
2023/10/28 00:38:12;;;;;;;12.00;3.05;;;;;;;;;;6264540;22;20296;-43
2023/10/28 00:40:42;;;;;;;13.48;3.00;;;;;;;;;;6270778;22;20405;-42
2023/10/28 00:43:11;;;;;;;11.88;2.63;;;;;;;;;;6280326;22;20022;-42
2023/10/28 00:45:39;;;;;;;10.80;2.70;;;;;;;;;;6264550;22;20023;-43
2023/10/28 00:48:07;;;;;;;11.23;2.53;;;;;;;;;;6274917;22;20329;-42
2023/10/28 00:50:36;;;;;;;14.98;3.00;;;;;;;;;;6266016;22;20019;-44
2023/10/28 00:53:08;;;;;;;12.90;2.80;;;;;;;;;;6277451;22;20419;-43
2023/10/28 00:55:36;;;;;;;11.07;2.60;;;;;;;;;;6267456;22;20450;-42
2023/10/28 00:58:04;;;;;;;9.50;2.00;;;;;;;;;;6267730;22;20019;-43
2023/10/28 01:00:31;;;;;;;9.33;2.50;;;;;;;;;;6272510;22;20026;-43
2023/10/28 01:02:59;;;;;;;13.18;2.13;;;;;;;;;;6266082;22;20072;-42
2023/10/28 01:05:27;;;;;;;11.43;2.50;;;;;;;;;;6270101;22;20265;-42
2023/10/28 01:07:54;;;;;;;12.48;2.83;;;;;;;;;;6266771;22;20561;-43
2023/10/28 01:10:28;;;;;;;9.20;1.88;;;;;;;;;;6225736;22;20474;-42
2023/10/28 01:12:56;;;;;;;10.77;2.20;;;;;;;;;;6276840;22;20437;-43
2023/10/28 01:15:24;;;;;;;9.23;1.92;;;;;;;;;;6271046;22;20026;-43
2023/10/28 01:17:52;;;;;;;7.65;1.60;;;;;;;;;;6272872;22;20015;-42
2023/10/28 01:20:21;;;;;;;11.25;1.98;;;;;;;;;;6266756;22;20037;-40
2023/10/28 01:22:51;;;;;;;10.52;1.90;;;;;;;;;;6268380;22;20694;-43
2023/10/28 01:25:19;;;;;;;13.03;1.73;;;;;;;;;;6267480;22;20026;-43
2023/10/28 01:27:47;;;;;;;10.13;1.90;;;;;;;;;;6267999;22;20061;-43
2023/10/28 01:30:14;;;;;;;13.68;2.50;;;;;;;;;;6244233;22;20012;-45
2023/10/28 01:32:42;;;;;;;8.95;2.00;;;;;;;;;;6257509;22;20015;-42
2023/10/28 01:35:10;;;;;;;11.43;2.30;;;;;;;;;;6243811;22;20015;-43
2023/10/28 01:37:38;;;;;;;11.90;2.13;;;;;;;;;;6274305;22;20164;-42
2023/10/28 01:40:12;;;;;;;12.90;2.45;;;;;;;;;;6266079;22;20379;-42
2023/10/28 01:42:41;;;;;;;9.52;2.00;;;;;;;;;;6274273;22;20062;-43
2023/10/28 01:45:10;;;;;;;13.20;2.17;;;;;;;;;;6272728;22;20440;-43
2023/10/28 01:47:38;;;;;;;10.85;1.90;;;;;;;;;;6271506;22;20422;-42
2023/10/28 01:50:07;;;;;;;11.77;1.60;;;;;;;;;;6251603;22;20377;-43
2023/10/28 01:52:34;;;;;;;9.00;1.85;;;;;;;;;;6267018;22;20098;-43
2023/10/28 01:55:02;;;;;;;15.43;2.28;;;;;;;;;;6246922;22;20015;-43
2023/10/28 01:57:31;;;;;;;8.63;2.15;;;;;;;;;;6270053;22;20030;-42
2023/10/28 02:00:04;;;;;;;9.20;1.75;;;;;;;;;;6281414;22;20019;-42
2023/10/28 02:02:37;;;;;;;9.37;1.80;;;;;;;;;;6268568;22;20015;-42
2023/10/28 02:05:05;;;;;;;11.02;2.08;;;;;;;;;;6285848;22;20102;-42
2023/10/28 02:07:34;;;;;;;7.15;1.35;;;;;;;;;;6269343;22;20019;-43
2023/10/28 02:10:05;;;;;;;11.55;1.58;;;;;;;;;;6278779;22;20019;-42
2023/10/28 02:12:36;;;;;;;6.78;1.50;;;;;;;;;;6280240;22;20438;-42
2023/10/28 02:15:05;;;;;;;9.43;1.57;;;;;;;;;;6263758;22;20039;-43
2023/10/28 02:17:35;;;;;;;7.35;1.58;;;;;;;;;;6254192;22;20022;-42
2023/10/28 02:20:04;;;;;;;8.52;1.48;;;;;;;;;;6273786;22;20019;-44
2023/10/28 02:22:32;;;;;;;10.80;1.42;;;;;;;;;;6273128;22;20031;-43
2023/10/28 02:25:00;;;;;;;10.10;1.73;;;;;;;;;;6262559;22;20029;-42
2023/10/28 02:27:29;;;;;;;9.00;1.70;;;;;;;;;;6287818;22;20086;-42
2023/10/28 02:29:58;;;;;;;12.90;1.73;;;;;;;;;;6276059;22;20015;-43
2023/10/28 02:32:26;;;;;;;9.20;1.00;;;;;;;;;;6252326;22;20020;-42
2023/10/28 02:34:54;;;;;;;8.93;1.60;;;;;;;;;;6278072;22;20022;-44
2023/10/28 02:37:30;;;;;;;9.70;1.23;;;;;;;;;;6281771;22;20022;-43
2023/10/28 02:39:57;;;;;;;7.60;1.23;;;;;;;;;;6270204;22;20030;-43
2023/10/28 02:42:25;;;;;;;10.02;1.65;;;;;;;;;;6276098;22;20015;-44
2023/10/28 02:44:53;;;;;;;11.23;2.05;;;;;;;;;;6276807;22;20019;-42
2023/10/28 02:47:22;;;;;;;9.43;1.35;;;;;;;;;;6277388;22;20030;-43
2023/10/28 02:49:50;;;;;;;11.52;2.13;;;;;;;;;;6283356;22;20019;-44
2023/10/28 02:52:18;;;;;;;8.60;0.90;;;;;;;;;;6265907;22;20031;-42
2023/10/28 02:54:45;;;;;;;11.20;1.65;;;;;;;;;;6252567;22;20011;-43
2023/10/28 02:57:13;;;;;;;16.98;1.50;;;;;;;;;;6234760;22;20018;-42
2023/10/28 02:59:41;;;;;;;16.15;1.55;;;;;;;;;;6276295;22;20023;-42
2023/10/28 03:02:12;;;;;;;6.85;1.30;;;;;;;;;;6285640;22;20022;-44
2023/10/28 03:04:41;;;;;;;13.57;1.03;;;;;;;;;;6280219;22;20186;-43
2023/10/28 03:07:09;;;;;;;13.60;1.50;;;;;;;;;;6285864;22;20021;-43
2023/10/28 03:09:38;;;;;;;10.00;1.65;;;;;;;;;;6254654;22;20034;-43
2023/10/28 03:12:15;;;;;;;11.45;1.70;;;;;;;;;;6270634;22;20350;-42
2023/10/28 03:14:43;;;;;;;9.65;0.90;;;;;;;;;;6265590;22;20020;-43
2023/10/28 03:17:10;;;;;;;8.83;1.00;;;;;;;;;;6285070;22;20017;-43
2023/10/28 03:19:38;;;;;;;10.00;1.08;;;;;;;;;;6287390;22;20418;-43
2023/10/28 03:22:07;;;;;;;12.30;1.17;;;;;;;;;;6276555;22;20026;-45
2023/10/28 03:24:52;;;;;;;10.35;0.82;;;;;;;;;;6274727;22;20045;-43
2023/10/28 03:27:20;;;;;;;15.13;0.95;;;;;;;;;;6285692;22;20522;-42
2023/10/28 03:29:55;;;;;;;9.80;1.10;;;;;;;;;;6284716;22;20012;-43
2023/10/28 03:32:22;;;;;;;13.18;1.20;;;;;;;;;;6273615;22;20011;-42
2023/10/28 03:34:51;;;;;;;8.68;1.00;;;;;;;;;;6256743;22;20747;-43
2023/10/28 03:37:20;;;;;;;5.78;0.80;;;;;;;;;;6271582;22;20030;-42
2023/10/28 03:39:50;;;;;;;8.80;0.90;;;;;;;;;;6280787;22;20408;-43
2023/10/28 03:42:17;;;;;;;15.27;1.30;;;;;;;;;;6280949;22;20011;-40
2023/10/28 03:44:46;;;;;;;8.95;0.60;;;;;;;;;;6276926;22;20072;-42
2023/10/28 03:47:14;;;;;;;14.20;2.05;;;;;;;;;;6285532;22;20026;-42
2023/10/28 03:49:44;;;;;;;14.35;1.33;;;;;;;;;;6266394;22;20053;-42
2023/10/28 03:52:12;;;;;;;9.60;1.30;;;;;;;;;;6272234;22;20095;-43
2023/10/28 03:54:41;;;;;;;7.43;1.30;;;;;;;;;;6248405;22;20384;-43
2023/10/28 03:57:09;;;;;;;17.85;1.73;;;;;;;;;;6274950;22;20469;-45
2023/10/28 03:59:39;;;;;;;8.40;1.10;;;;;;;;;;6284889;22;20469;-43
2023/10/28 04:02:06;;;;;;;10.77;1.08;;;;;;;;;;6279475;22;20023;-42
2023/10/28 04:04:34;;;;;;;11.63;1.35;;;;;;;;;;6272252;22;20450;-43
2023/10/28 04:07:02;;;;;;;9.00;0.90;;;;;;;;;;6280787;22;20400;-43
2023/10/28 04:09:32;;;;;;;8.90;1.00;;;;;;;;;;6273869;22;20425;-44
2023/10/28 04:12:01;;;;;;;11.00;2.00;;;;;;;;;;6269428;22;20073;-43
2023/10/28 04:14:31;;;;;;;12.07;1.40;;;;;;;;;;6278110;22;20476;-43
2023/10/28 04:16:58;;;;;;;8.88;1.42;;;;;;;;;;6271612;22;20446;-43
2023/10/28 04:19:26;;;;;;;11.23;1.80;;;;;;;;;;6278065;22;20011;-43
2023/10/28 04:21:54;;;;;;;15.20;1.40;;;;;;;;;;6265779;22;20015;-43
2023/10/28 04:24:23;;;;;;;14.27;1.75;;;;;;;;;;6279841;22;20015;-43
2023/10/28 04:26:51;;;;;;;14.27;1.98;;;;;;;;;;6284250;22;20438;-42
2023/10/28 04:29:20;;;;;;;10.48;1.27;;;;;;;;;;6265273;22;20022;-43
2023/10/28 04:31:49;;;;;;;10.07;1.10;;;;;;;;;;6250760;22;20357;-44
2023/10/28 04:34:17;;;;;;;8.18;1.10;;;;;;;;;;6275308;22;20080;-43
2023/10/28 04:36:44;;;;;;;13.30;1.35;;;;;;;;;;6275381;22;20025;-43
2023/10/28 04:39:15;;;;;;;12.98;1.38;;;;;;;;;;6279610;22;20220;-42
2023/10/28 04:41:43;;;;;;;10.30;1.20;;;;;;;;;;6275422;22;20023;-43
2023/10/28 04:44:13;;;;;;;8.80;1.23;;;;;;;;;;6275119;22;20019;-42
2023/10/28 04:46:42;;;;;;;15.20;1.63;;;;;;;;;;6268418;22;20035;-42
2023/10/28 04:49:11;;;;;;;10.77;1.15;;;;;;;;;;6273297;22;20019;-45
2023/10/28 04:51:38;;;;;;;11.55;1.65;;;;;;;;;;6264492;22;20556;-43
2023/10/28 04:54:07;;;;;;;10.15;0.80;;;;;;;;;;6260596;22;20026;-43
2023/10/28 04:56:34;;;;;;;8.33;1.13;;;;;;;;;;6276745;22;20022;-45
2023/10/28 04:59:02;;;;;;;9.57;1.08;;;;;;;;;;6278398;22;20015;-43
2023/10/28 05:01:30;;;;;;;9.00;0.80;;;;;;;;;;6271547;22;20011;-43
2023/10/28 05:03:59;;;;;;;10.70;1.00;;;;;;;;;;6273421;22;20047;-42
2023/10/28 05:06:37;;;;;;;18.38;1.23;;;;;;;;;;6274596;22;20019;-42
2023/10/28 05:09:04;;;;;;;9.40;1.00;;;;;;;;;;6249375;22;20030;-43
2023/10/28 05:11:32;;;;;;;14.20;1.30;;;;;;;;;;6270305;22;20023;-42
2023/10/28 05:14:00;;;;;;;16.70;1.10;;;;;;;;;;6275986;22;20376;-43
2023/10/28 05:16:27;;;;;;;15.38;1.70;;;;;;;;;;6263744;22;20414;-43
2023/10/28 05:18:56;;;;;;;14.73;1.30;;;;;;;;;;6274986;22;20011;-43
2023/10/28 05:21:26;;;;;;;13.33;0.90;;;;;;;;;;6273604;22;20395;-43
2023/10/28 05:24:02;;;;;;;7.75;1.13;;;;;;;;;;6280061;22;20019;-43
2023/10/28 05:26:30;;;;;;;21.00;2.38;;;;;;;;;;6276467;22;20461;-43
2023/10/28 05:28:57;;;;;;;11.05;1.08;;;;;;;;;;6262091;22;20019;-44
2023/10/28 05:31:26;;;;;;;10.27;0.70;;;;;;;;;;6266776;22;20446;-43
2023/10/28 05:33:55;;;;;;;13.33;0.87;;;;;;;;;;6275199;22;20350;-42
2023/10/28 05:36:23;;;;;;;14.27;1.20;;;;;;;;;;6274622;22;20481;-43
2023/10/28 05:38:53;;;;;;;13.27;1.00;;;;;;;;;;6242620;22;20611;-42
2023/10/28 05:41:21;;;;;;;8.25;0.70;;;;;;;;;;6261187;22;20507;-43
2023/10/28 05:43:49;;;;;;;11.13;0.77;;;;;;;;;;6245755;22;20052;-43
2023/10/28 05:46:19;;;;;;;10.50;0.80;;;;;;;;;;6262395;22;20026;-44
2023/10/28 05:48:48;;;;;;;12.73;1.42;;;;;;;;;;6270577;22;20015;-43
2023/10/28 05:51:16;;;;;;;7.47;0.82;;;;;;;;;;6237986;22;20019;-42
2023/10/28 05:53:43;;;;;;;13.38;1.45;;;;;;;;;;6274696;22;20025;-42
2023/10/28 05:56:16;;;;;;;13.98;1.13;;;;;;;;;;6270526;22;20011;-43
2023/10/28 05:58:43;;;;;;;7.60;1.23;;;;;;;;;;6276152;22;20025;-42
2023/10/28 06:01:13;;;;;;;12.32;1.15;;;;;;;;;;6273185;22;20045;-42
2023/10/28 06:03:40;;;;;;;13.90;1.10;;;;;;;;;;6270634;22;20015;-44
2023/10/28 06:06:08;;;;;;;11.35;1.00;;;;;;;;;;6276380;22;20020;-43
2023/10/28 06:08:38;;;;;;;8.32;1.30;;;;;;;;;;6267683;22;20050;-42
2023/10/28 06:11:06;;;;;;;7.80;0.80;;;;;;;;;;6265227;22;20017;-43
2023/10/28 06:13:37;;;;;;;13.80;2.47;;;;;;;;;;6266231;22;20072;-43
2023/10/28 06:16:06;;;;;;;9.10;1.35;;;;;;;;;;6268232;22;20090;-42
2023/10/28 06:18:37;;;;;;;9.98;1.35;;;;;;;;;;6274961;22;20031;-44
2023/10/28 06:21:05;;;;;;;11.02;1.35;;;;;;;;;;6274447;22;20023;-43
2023/10/28 06:23:32;;;;;;;7.60;0.73;;;;;;;;;;6275305;22;20429;-44
2023/10/28 06:26:00;;;;;;;11.40;0.98;;;;;;;;;;6270223;22;20025;-43
2023/10/28 06:28:28;;;;;;;12.32;1.15;;;;;;;;;;6278207;22;20015;-43
2023/10/28 06:31:16;;;;;;;8.95;2.00;;;;;;;;;;6275136;22;20027;-42
2023/10/28 06:33:45;;;;;;;10.20;1.00;;;;;;;;;;6277694;22;20468;-43
2023/10/28 06:36:12;;;;;;;9.07;0.93;;;;;;;;;;6273355;22;20076;-45
2023/10/28 06:38:40;;;;;;;10.85;1.20;;;;;;;;;;6271840;22;20023;-43
2023/10/28 06:41:12;;;;;;;12.05;1.02;;;;;;;;;;6271835;22;20023;-43
2023/10/28 06:43:39;;;;;;;12.40;1.05;;;;;;;;;;6269293;22;20046;-42
2023/10/28 06:46:09;;;;;;;8.60;1.30;;;;;;;;;;6244172;22;20489;-43
2023/10/28 06:48:40;;;;;;;9.00;1.13;;;;;;;;;;6277264;22;20046;-43
2023/10/28 06:51:12;;;;;;;8.98;1.20;;;;;;;;;;6268505;22;20219;-45
2023/10/28 06:53:40;;;;;;;14.77;0.93;;;;;;;;;;6273684;22;20026;-43
2023/10/28 06:56:08;;;;;;;9.73;0.65;;;;;;;;;;6275419;22;20023;-44
2023/10/28 06:58:37;;;;;;;10.25;0.88;;;;;;;;;;6270671;22;20042;-42
2023/10/28 07:01:05;;;;;;;11.97;0.80;;;;;;;;;;6272890;22;20015;-43
2023/10/28 07:03:32;;;;;;;9.10;0.90;;;;;;;;;;6280365;22;20019;-42
2023/10/28 07:06:02;;;;;;;13.75;0.80;;;;;;;;;;6265943;22;20076;-43
2023/10/28 07:08:31;;;;;;;14.00;0.95;;;;;;;;;;6266759;22;20016;-40
2023/10/28 07:10:59;;;;;;;13.93;1.27;;;;;;;;;;6272779;22;20038;-43
2023/10/28 07:13:27;;;;;;;10.10;1.10;;;;;;;;;;6262847;22;20405;-43
2023/10/28 07:16:00;;;;;;;14.52;1.10;;;;;;;;;;6272238;22;20019;-43
2023/10/28 07:18:27;;;;;;;19.75;1.00;;;;;;;;;;6273676;22;20023;-43
2023/10/28 07:20:55;;;;;;;14.80;0.95;;;;;;;;;;6271676;22;20286;-43
2023/10/28 07:23:26;;;;;;;10.82;1.08;;;;;;;;;;6259968;22;20366;-43
2023/10/28 07:25:58;;;;;;;19.97;1.20;;;;;;;;;;6269134;22;20019;-42
2023/10/28 07:28:32;;;;;;;16.85;1.00;;;;;;;;;;6250230;22;20011;-42
2023/10/28 07:30:59;;;;;;;16.17;2.35;;;;;;;;;;6233346;22;20037;-42
2023/10/28 07:33:27;;;;;;;14.60;1.40;;;;;;;;;;6275415;22;20509;-43
2023/10/28 07:35:55;;;;;;;18.85;2.53;;;;;;;;;;6272301;22;20015;-43
2023/10/28 07:38:23;;;;;;;13.53;1.83;;;;;;;;;;6241700;22;20015;-42
2023/10/28 07:40:52;;;;;;;10.13;0.70;;;;;;;;;;6272933;22;20030;-44
2023/10/28 07:43:20;;;;;;;17.42;1.55;;;;;;;;;;6266649;22;20908;-42
2023/10/28 07:45:48;;;;;;;17.00;1.23;;;;;;;;;;6276223;22;20033;-42
2023/10/28 07:48:16;;;;;;;12.27;1.23;;;;;;;;;;6268188;22;20016;-42
2023/10/28 07:50:44;;;;;;;11.57;1.43;;;;;;;;;;6279703;22;20037;-41
2023/10/28 07:53:11;;;;;;;15.55;1.60;;;;;;;;;;6241005;22;20061;-42
2023/10/28 07:55:39;;;;;;;17.10;1.45;;;;;;;;;;6264964;22;20035;-42
2023/10/28 07:58:14;;;;;;;16.13;1.30;;;;;;;;;;6248488;22;20457;-43
2023/10/28 08:00:43;;;;;;;15.23;1.70;;;;;;;;;;6273116;22;20118;-42
2023/10/28 08:03:10;;;;;;;10.00;0.73;;;;;;;;;;6269682;22;20025;-42
2023/10/28 08:05:38;;;;;;;11.88;1.42;;;;;;;;;;6268542;22;20015;-42
2023/10/28 08:08:15;;;;;;;12.13;1.08;;;;;;;;;;6276133;22;20015;-42
2023/10/28 08:10:45;;;;;;;11.80;2.17;;;;;;;;;;6271050;22;20155;-42
2023/10/28 08:13:14;;;;;;;13.43;1.65;;;;;;;;;;6242803;22;20019;-41
2023/10/28 08:15:42;;;;;;;15.30;1.80;;;;;;;;;;6276194;22;20039;-41
2023/10/28 08:18:09;;;;;;;15.60;1.25;;;;;;;;;;6270322;22;20019;-42
2023/10/28 08:20:40;;;;;;;15.90;1.30;;;;;;;;;;6278814;22;20034;-44
2023/10/28 08:23:07;;;;;;;13.95;1.25;;;;;;;;;;6279128;22;20034;-42
2023/10/28 08:25:36;;;;;;;16.15;1.33;;;;;;;;;;6267429;22;20457;-41
2023/10/28 08:28:03;;;;;;;13.73;1.50;;;;;;;;;;6276289;22;20011;-43
2023/10/28 08:30:37;;;;;;;13.52;1.10;;;;;;;;;;6264258;22;20057;-43
2023/10/28 08:33:05;;;;;;;17.70;1.20;;;;;;;;;;6282885;22;20020;-41
2023/10/28 08:35:34;;;;;;;14.43;1.50;;;;;;;;;;6258432;22;20692;-41
2023/10/28 08:38:05;;;;;;;14.55;1.60;;;;;;;;;;6270195;22;20472;-41
2023/10/28 08:40:34;;;;;;;16.30;1.10;;;;;;;;;;6259863;22;20294;-41
2023/10/28 08:43:03;;;;;;;12.65;1.25;;;;;;;;;;6276345;22;20019;-41
2023/10/28 08:45:32;;;;;;;10.75;1.52;;;;;;;;;;6256630;22;20045;-41
2023/10/28 08:48:02;;;;;;;14.05;1.33;;;;;;;;;;6281719;22;20027;-41
2023/10/28 08:50:31;;;;;;;17.38;1.92;;;;;;;;;;6266771;22;20019;-43
2023/10/28 08:53:03;;;;;;;16.87;2.37;;;;;;;;;;6271138;22;20015;-43
2023/10/28 08:55:31;;;;;;;17.25;2.05;;;;;;;;;;6269395;22;20081;-41
2023/10/28 08:57:58;;;;;;;14.43;1.38;;;;;;;;;;6278223;22;20015;-42
2023/10/28 09:00:29;;;;;;;12.13;1.48;;;;;;;;;;6277371;22;20016;-41
2023/10/28 09:02:57;;;;;;;19.27;1.80;;;;;;;;;;6260054;22;20463;-42
2023/10/28 09:05:28;;;;;;;12.50;1.57;;;;;;;;;;6276272;22;20019;-42
2023/10/28 09:07:56;;;;;;;15.30;1.70;;;;;;;;;;6273218;22;20373;-42
2023/10/28 09:10:24;;;;;;;21.98;2.05;;;;;;;;;;6269134;22;20449;-41
2023/10/28 09:12:51;;;;;;;25.05;2.20;;;;;;;;;;6266358;22;20011;-43
2023/10/28 09:15:20;;;;;;;19.13;1.90;;;;;;;;;;6247641;22;20015;-42
2023/10/28 09:17:48;;;;;;;15.27;1.57;;;;;;;;;;6269205;22;20446;-42
2023/10/28 09:20:16;;;;;;;17.10;2.45;;;;;;;;;;6268284;22;20020;-42
2023/10/28 09:22:48;;;;;;;18.58;2.65;;;;;;;;;;6253788;22;20398;-41
2023/10/28 09:25:17;;;;;;;16.33;2.10;;;;;;;;;;6267524;22;20042;-42
2023/10/28 09:27:45;;;;;;;17.42;1.67;;;;;;;;;;6271816;22;20445;-42
2023/10/28 09:30:13;;;;;;;18.97;2.27;;;;;;;;;;6275241;22;20015;-46
2023/10/28 09:32:47;;;;;;;15.23;2.88;;;;;;;;;;6268501;22;20106;-42
2023/10/28 09:35:15;;;;;;;16.63;1.35;;;;;;;;;;6274335;22;20158;-42
2023/10/28 09:37:44;;;;;;;16.10;2.40;;;;;;;;;;6258416;22;20021;-41
2023/10/28 09:40:14;;;;;;;8.73;1.27;;;;;;;;;;6272423;22;20077;-41
2023/10/28 09:42:43;;;;;;;18.43;2.50;;;;;;;;;;6268954;22;20109;-42
2023/10/28 09:45:12;;;;;;;12.35;1.83;;;;;;;;;;6266193;22;20474;-43
2023/10/28 09:47:50;;;;;;;17.65;2.03;;;;;;;;;;6241286;22;20011;-41
2023/10/28 09:50:20;;;;;;;25.08;2.25;;;;;;;;;;6265423;22;20031;-40
2023/10/28 09:52:50;;;;;;;17.80;2.75;;;;;;;;;;6253932;22;20030;-41
2023/10/28 09:55:22;;;;;;;18.40;1.70;;;;;;;;;;6270601;22;20034;-44
2023/10/28 09:57:51;;;;;;;19.40;2.13;;;;;;;;;;6262822;22;20472;-42
2023/10/28 10:00:23;;;;;;;15.77;1.80;;;;;;;;;;6234111;22;20487;-43
2023/10/28 10:02:58;;;;;;;21.13;2.38;;;;;;;;;;6265693;22;20027;-43
2023/10/28 10:05:30;;;;;;;19.00;2.47;;;;;;;;;;6257378;22;20043;-43
2023/10/28 10:07:58;;;;;;;31.60;3.60;;;;;;;;;;6266649;22;20025;-43
2023/10/28 10:10:27;;;;;;;20.08;2.38;;;;;;;;;;6254139;22;20031;-43
2023/10/28 10:13:03;;;;;;;13.38;2.13;;;;;;;;;;6254265;22;20026;-43
2023/10/28 10:15:38;;;;;;;16.00;1.52;;;;;;;;;;6261636;22;20019;-43
2023/10/28 10:18:09;;;;;;;20.08;2.45;;;;;;;;;;6267493;22;20019;-46
2023/10/28 10:20:42;;;;;;;20.90;1.97;;;;;;;;;;6258064;22;20030;-43
2023/10/28 10:23:10;;;;;;;19.10;2.00;;;;;;;;;;6265513;22;20453;-44
2023/10/28 10:25:44;;;;;;;17.13;2.17;;;;;;;;;;6259009;22;20039;-43
2023/10/28 10:28:13;;;;;;;22.40;2.33;;;;;;;;;;6235407;22;20081;-42
2023/10/28 10:30:41;;;;;;;23.85;2.55;;;;;;;;;;6268606;22;20019;-43
2023/10/28 10:33:11;;;;;;;17.27;2.00;;;;;;;;;;6256954;22;20445;-43
2023/10/28 10:35:50;;;;;;;20.00;2.47;;;;;;;;;;6260531;22;20046;-43
2023/10/28 10:38:27;;;;;;;14.25;2.10;;;;;;;;;;6270687;22;20455;-44
2023/10/28 10:40:58;;;;;;;15.57;2.45;;;;;;;;;;6258713;22;20065;-42
2023/10/28 10:43:29;;;;;;;15.40;1.48;;;;;;;;;;6273004;22;20020;-42
2023/10/28 10:45:57;;;;;;;15.63;1.90;;;;;;;;;;6259803;22;20366;-42
2023/10/28 10:48:26;;;;;;;25.02;2.75;;;;;;;;;;6270753;22;20030;-42
2023/10/28 10:50:55;;;;;;;23.73;3.35;;;;;;;;;;6259932;22;20019;-43
2023/10/28 10:53:26;;;;;;;16.73;3.05;;;;;;;;;;6274646;22;20101;-43
2023/10/28 10:56:07;;;;;;;16.42;2.60;;;;;;;;;;6241846;22;20023;-43
2023/10/28 10:58:34;;;;;;;16.63;2.70;;;;;;;;;;6273988;22;20094;-43
2023/10/28 11:01:03;;;;;;;16.58;2.35;;;;;;;;;;6266114;22;20392;-43
2023/10/28 11:03:37;;;;;;;17.42;2.58;;;;;;;;;;6270854;22;20023;-43
2023/10/28 11:06:05;;;;;;;23.30;3.55;;;;;;;;;;6241242;22;20019;-43
2023/10/28 11:08:34;;;;;;;10.98;1.98;;;;;;;;;;6269634;22;20025;-42
2023/10/28 11:11:13;;;;;;;20.43;2.27;;;;;;;;;;6270632;22;20015;-42
2023/10/28 11:13:43;;;;;;;17.98;2.90;;;;;;;;;;6263449;22;20130;-43
2023/10/28 11:16:19;;;;;;;21.65;3.03;;;;;;;;;;6272978;22;20085;-42
2023/10/28 11:18:47;;;;;;;22.75;2.85;;;;;;;;;;6259749;22;20019;-44
2023/10/28 11:21:15;;;;;;;21.27;3.08;;;;;;;;;;6275219;22;20373;-42
2023/10/28 11:23:43;;;;;;;19.90;2.40;;;;;;;;;;6270888;22;20446;-43
2023/10/28 11:26:17;;;;;;;21.38;2.75;;;;;;;;;;6260857;22;20015;-42
2023/10/28 11:28:52;;;;;;;15.00;2.28;;;;;;;;;;6245859;22;20023;-44
2023/10/28 11:31:20;;;;;;;20.73;2.42;;;;;;;;;;6273063;22;20019;-45
2023/10/28 11:33:52;;;;;;;18.95;1.77;;;;;;;;;;6261301;22;20643;-42
2023/10/28 11:36:30;;;;;;;16.00;2.40;;;;;;;;;;6244541;22;20019;-41
2023/10/28 11:38:57;;;;;;;14.48;2.03;;;;;;;;;;6236993;22;20019;-41
2023/10/28 11:41:34;;;;;;;23.75;1.95;;;;;;;;;;6266211;22;20080;-40
2023/10/28 11:44:03;;;;;;;25.30;2.92;;;;;;;;;;6276234;22;20023;-40
2023/10/28 11:46:31;;;;;;;20.33;3.17;;;;;;;;;;6261591;22;20039;-45
2023/10/28 11:48:58;;;;;;;17.03;2.93;;;;;;;;;;6267723;22;20072;-42
2023/10/28 11:51:27;;;;;;;14.88;2.15;;;;;;;;;;6263473;22;20681;-41
2023/10/28 11:53:55;;;;;;;23.58;3.95;;;;;;;;;;6268848;22;20360;-45
2023/10/28 11:56:23;;;;;;;20.90;3.60;;;;;;;;;;6265189;22;20286;-41
2023/10/28 11:58:52;;;;;;;16.67;3.30;;;;;;;;;;6273027;22;20447;-42
2023/10/28 12:01:20;;;;;;;19.63;2.37;;;;;;;;;;6268330;22;20575;-41
2023/10/28 12:03:47;;;;;;;21.88;3.55;;;;;;;;;;6265805;22;20018;-42
2023/10/28 12:06:15;;;;;;;17.55;2.97;;;;;;;;;;6264487;22;20019;-43
2023/10/28 12:08:48;;;;;;;23.83;3.88;;;;;;;;;;6253444;22;20019;-42
2023/10/28 12:11:16;;;;;;;24.90;2.83;;;;;;;;;;6274736;22;20157;-39
2023/10/28 12:13:47;;;;;;;17.93;2.13;;;;;;;;;;6262431;22;20461;-42
2023/10/28 12:16:16;;;;;;;30.35;3.00;;;;;;;;;;6265819;22;20068;-41
2023/10/28 12:18:44;;;;;;;20.55;2.97;;;;;;;;;;6238663;22;20517;-40
2023/10/28 12:21:13;;;;;;;22.02;2.78;;;;;;;;;;6261714;22;20278;-40
2023/10/28 12:23:40;;;;;;;19.70;3.22;;;;;;;;;;6267801;22;20042;-43
2023/10/28 12:26:10;;;;;;;26.30;2.60;;;;;;;;;;6260945;22;20019;-43
2023/10/28 12:28:38;;;;;;;27.13;2.85;;;;;;;;;;6268068;22;20104;-41
2023/10/28 12:31:06;;;;;;;22.02;2.20;;;;;;;;;;6246469;22;20019;-42
2023/10/28 12:33:36;;;;;;;20.85;2.53;;;;;;;;;;6251819;22;20022;-45
2023/10/28 12:36:06;;;;;;;27.65;3.13;;;;;;;;;;6271778;22;20029;-45
2023/10/28 12:38:36;;;;;;;18.87;2.37;;;;;;;;;;6253566;22;20045;-42
2023/10/28 12:41:04;;;;;;;22.23;3.55;;;;;;;;;;6274405;22;20114;-42
2023/10/28 12:43:35;;;;;;;25.05;3.08;;;;;;;;;;6262931;22;20420;-42
2023/10/28 12:46:05;;;;;;;21.30;2.63;;;;;;;;;;6227826;22;20030;-42
2023/10/28 12:48:37;;;;;;;21.65;3.35;;;;;;;;;;6261270;22;20026;-42
2023/10/28 12:51:05;;;;;;;25.23;3.30;;;;;;;;;;6232684;22;20011;-42
2023/10/28 12:53:33;;;;;;;18.17;2.58;;;;;;;;;;6262102;22;20050;-44
2023/10/28 12:56:02;;;;;;;17.40;2.63;;;;;;;;;;6263229;22;20370;-42
2023/10/28 12:58:31;;;;;;;16.45;2.50;;;;;;;;;;6271416;22;20099;-42
2023/10/28 13:01:05;;;;;;;23.30;3.53;;;;;;;;;;6261248;22;20230;-43
2023/10/28 13:03:33;;;;;;;21.80;3.23;;;;;;;;;;6270645;22;20019;-43
2023/10/28 13:06:02;;;;;;;23.88;4.45;;;;;;;;;;6264682;22;20042;-42
2023/10/28 13:08:32;;;;;;;22.40;3.13;;;;;;;;;;6252589;22;20401;-42
2023/10/28 13:11:00;;;;;;;22.75;5.30;;;;;;;;;;6216565;22;20092;-43
2023/10/28 13:13:35;;;;;;;41.95;16.05;;;;;;;;;;6277276;22;20042;-42
2023/10/28 13:16:04;;;;;;;39.47;13.07;;;;;;;;;;6259943;22;20015;-42
2023/10/28 13:18:31;;;;;;;125.93;55.33;;;;;;;;;;6271014;22;20464;-42
2023/10/28 13:20:59;;;;;;;51.78;19.90;;;;;;;;;;6258068;22;20042;-42
2023/10/28 13:23:29;;;;;;;38.17;9.15;;;;;;;;;;6275627;22;20050;-42
2023/10/28 13:25:56;;;;;;;33.97;11.00;;;;;;;;;;6251949;22;20199;-42
2023/10/28 13:28:27;;;;;;;26.73;5.30;;;;;;;;;;6277353;22;20358;-43
2023/10/28 13:30:56;;;;;;;33.50;4.93;;;;;;;;;;6272351;22;20370;-42
2023/10/28 13:33:24;;;;;;;22.20;4.03;;;;;;;;;;6233139;22;20200;-42
2023/10/28 13:35:52;;;;;;;22.88;3.15;;;;;;;;;;6263247;22;20015;-43
2023/10/28 13:38:19;;;;;;;32.72;8.35;;;;;;;;;;6250135;22;20264;-43
2023/10/28 13:40:49;;;;;;;23.03;4.43;;;;;;;;;;6265765;22;20011;-43
2023/10/28 13:43:16;;;;;;;21.75;5.15;;;;;;;;;;6264872;22;20011;-43
2023/10/28 13:45:44;;;;;;;33.42;9.65;;;;;;;;;;6240065;22;20510;-44
2023/10/28 13:48:15;;;;;;;41.47;15.82;;;;;;;;;;6273050;22;20023;-47
2023/10/28 13:50:44;;;;;;;42.03;14.77;;;;;;;;;;6259244;22;20076;-42
2023/10/28 13:53:12;;;;;;;19.23;5.43;;;;;;;;;;6220923;22;20611;-44
2023/10/28 13:55:40;;;;;;;18.20;6.53;;;;;;;;;;6261997;22;20023;-42
2023/10/28 13:58:09;;;;;;;15.98;2.85;;;;;;;;;;6270386;22;20531;-42
2023/10/28 14:00:38;;;;;;;26.88;2.65;;;;;;;;;;6267447;22;20019;-42
2023/10/28 14:03:05;;;;;;;15.23;2.25;;;;;;;;;;6276067;22;20072;-42
2023/10/28 14:05:33;;;;;;;22.67;3.10;;;;;;;;;;6265367;22;20468;-43
2023/10/28 14:08:02;;;;;;;23.40;2.50;;;;;;;;;;6245309;22;20287;-44
2023/10/28 14:10:30;;;;;;;20.27;2.63;;;;;;;;;;6270062;22;20555;-42
2023/10/28 14:12:58;;;;;;;15.75;3.83;;;;;;;;;;6249342;22;20023;-43
2023/10/28 14:15:27;;;;;;;19.88;3.35;;;;;;;;;;6255981;22;20012;-42
2023/10/28 14:17:55;;;;;;;14.00;3.17;;;;;;;;;;6276215;22;20278;-42
2023/10/28 14:20:23;;;;;;;14.98;1.80;;;;;;;;;;6274145;22;20026;-42
2023/10/28 14:22:50;;;;;;;9.85;3.33;;;;;;;;;;6271684;22;20011;-42
2023/10/28 14:25:22;;;;;;;11.10;1.63;;;;;;;;;;6275675;22;20114;-42
2023/10/28 14:27:49;;;;;;;8.63;1.98;;;;;;;;;;6220653;22;20019;-41
2023/10/28 14:30:17;;;;;;;9.87;1.23;;;;;;;;;;6233399;22;20472;-42
2023/10/28 14:32:46;;;;;;;12.65;1.48;;;;;;;;;;6263266;22;20023;-42
2023/10/28 14:35:14;;;;;;;5.80;1.05;;;;;;;;;;6259237;22;20065;-42
2023/10/28 14:37:42;;;;;;;9.85;1.30;;;;;;;;;;6260688;22;20023;-42
2023/10/28 14:40:10;;;;;;;9.00;1.25;;;;;;;;;;6258148;22;20019;-42
2023/10/28 14:42:39;;;;;;;11.67;1.27;;;;;;;;;;6234179;22;20015;-42